Golden, North Carolina
Current Conditions -  °F | °C
As of 5:15 AM on Saturday 22 Nov 2014 (Local Time) from KFQD Reporting Station
Clear Clear  
Wind Chill: 18°   Ceiling: Unl
Heat Index: 24°   Visibility: 10mi
Dew Point: 19°   Wind: 5mph
Humidity: 84%   Direction: 310°NW
Pressure: 30.53"   Gusts: NA
Location:  35.4977°N, 81.7958°W
Report Text: KFQD 221015Z AUTO 31004KT 10SM CLR M05/M07 A3053 RMK AO2 T10471070
Loading
Personal Weather Stations






























Interactive Weather Map New forecast layout! Learn more

10-Day Weather Forecast

Advertisements
Track Severe Weather on mobile